sensor_id;sensor_type;location;lat;lon;timestamp;P1;durP1;ratioP1;P2;durP2;ratioP2
71606;SDS011;60641;53.556;9.914;2023-02-26T00:02:25;5.10;;;0.80;;
71606;SDS011;60641;53.556;9.914;2023-02-26T00:04:51;4.00;;;0.60;;
71606;SDS011;60641;53.556;9.914;2023-02-26T00:07:18;5.40;;;0.70;;
71606;SDS011;60641;53.556;9.914;2023-02-26T00:09:44;8.00;;;0.70;;
71606;SDS011;60641;53.556;9.914;2023-02-26T00:12:11;6.10;;;0.80;;
71606;SDS011;60641;53.556;9.914;2023-02-26T00:14:38;6.40;;;0.80;;
71606;SDS011;60641;53.556;9.914;2023-02-26T00:17:06;7.30;;;0.60;;
71606;SDS011;60641;53.556;9.914;2023-02-26T00:19:43;2.90;;;0.50;;
71606;SDS011;60641;53.556;9.914;2023-02-26T00:22:09;2.50;;;0.40;;
71606;SDS011;60641;53.556;9.914;2023-02-26T00:24:36;2.90;;;0.60;;
71606;SDS011;60641;53.556;9.914;2023-02-26T00:27:02;4.40;;;0.50;;
71606;SDS011;60641;53.556;9.914;2023-02-26T00:29:29;3.20;;;0.70;;
71606;SDS011;60641;53.556;9.914;2023-02-26T00:31:56;3.00;;;0.60;;
71606;SDS011;60641;53.556;9.914;2023-02-26T00:34:22;3.70;;;0.50;;
71606;SDS011;60641;53.556;9.914;2023-02-26T00:37:02;6.10;;;0.60;;
71606;SDS011;60641;53.556;9.914;2023-02-26T00:42:12;3.80;;;0.50;;
71606;SDS011;60641;53.556;9.914;2023-02-26T00:44:39;5.00;;;0.60;;
71606;SDS011;60641;53.556;9.914;2023-02-26T00:52:49;3.40;;;0.70;;
71606;SDS011;60641;53.556;9.914;2023-02-26T00:55:23;4.70;;;0.60;;
71606;SDS011;60641;53.556;9.914;2023-02-26T00:57:49;5.40;;;0.80;;
71606;SDS011;60641;53.556;9.914;2023-02-26T01:00:16;4.90;;;0.60;;
71606;SDS011;60641;53.556;9.914;2023-02-26T01:02:43;5.00;;;0.60;;
71606;SDS011;60641;53.556;9.914;2023-02-26T01:05:10;3.70;;;0.60;;
71606;SDS011;60641;53.556;9.914;2023-02-26T01:07:39;4.30;;;0.60;;
71606;SDS011;60641;53.556;9.914;2023-02-26T01:10:09;5.60;;;0.70;;
71606;SDS011;60641;53.556;9.914;2023-02-26T01:12:36;4.30;;;0.60;;
71606;SDS011;60641;53.556;9.914;2023-02-26T01:15:04;2.30;;;0.50;;
71606;SDS011;60641;53.556;9.914;2023-02-26T01:22:56;5.80;;;0.50;;
71606;SDS011;60641;53.556;9.914;2023-02-26T01:25:27;3.30;;;0.60;;
71606;SDS011;60641;53.556;9.914;2023-02-26T01:27:56;4.20;;;0.50;;
71606;SDS011;60641;53.556;9.914;2023-02-26T01:30:23;4.50;;;0.50;;
71606;SDS011;60641;53.556;9.914;2023-02-26T01:32:56;5.70;;;0.70;;
71606;SDS011;60641;53.556;9.914;2023-02-26T01:35:49;3.50;;;0.60;;
71606;SDS011;60641;53.556;9.914;2023-02-26T01:38:38;3.40;;;0.50;;
71606;SDS011;60641;53.556;9.914;2023-02-26T01:44:25;3.70;;;0.60;;
71606;SDS011;60641;53.556;9.914;2023-02-26T01:49:37;4.70;;;0.50;;
71606;SDS011;60641;53.556;9.914;2023-02-26T01:52:04;2.50;;;0.50;;
71606;SDS011;60641;53.556;9.914;2023-02-26T01:54:33;4.60;;;0.70;;
71606;SDS011;60641;53.556;9.914;2023-02-26T01:57:05;4.50;;;0.60;;
71606;SDS011;60641;53.556;9.914;2023-02-26T01:59:36;3.60;;;0.60;;
71606;SDS011;60641;53.556;9.914;2023-02-26T02:02:06;3.20;;;0.50;;
71606;SDS011;60641;53.556;9.914;2023-02-26T02:04:34;4.90;;;0.70;;
71606;SDS011;60641;53.556;9.914;2023-02-26T02:07:00;5.70;;;0.70;;
71606;SDS011;60641;53.556;9.914;2023-02-26T02:09:27;6.10;;;1.60;;
71606;SDS011;60641;53.556;9.914;2023-02-26T02:14:55;5.90;;;0.80;;
71606;SDS011;60641;53.556;9.914;2023-02-26T02:26:14;5.10;;;0.90;;
71606;SDS011;60641;53.556;9.914;2023-02-26T02:32:09;6.40;;;1.00;;
71606;SDS011;60641;53.556;9.914;2023-02-26T02:34:41;8.90;;;0.80;;
71606;SDS011;60641;53.556;9.914;2023-02-26T02:39:45;4.30;;;0.90;;
71606;SDS011;60641;53.556;9.914;2023-02-26T02:44:42;6.80;;;1.00;;
71606;SDS011;60641;53.556;9.914;2023-02-26T02:47:14;6.90;;;0.80;;
71606;SDS011;60641;53.556;9.914;2023-02-26T02:49:54;6.30;;;1.00;;
71606;SDS011;60641;53.556;9.914;2023-02-26T02:52:27;5.70;;;1.00;;
71606;SDS011;60641;53.556;9.914;2023-02-26T02:55:01;6.30;;;1.10;;
71606;SDS011;60641;53.556;9.914;2023-02-26T02:57:36;5.80;;;0.70;;
71606;SDS011;60641;53.556;9.914;2023-02-26T03:00:07;6.60;;;1.00;;
71606;SDS011;60641;53.556;9.914;2023-02-26T03:05:18;5.60;;;0.90;;
71606;SDS011;60641;53.556;9.914;2023-02-26T03:07:50;5.70;;;0.80;;
71606;SDS011;60641;53.556;9.914;2023-02-26T03:10:19;2.70;;;0.60;;
71606;SDS011;60641;53.556;9.914;2023-02-26T03:12:46;5.60;;;1.10;;
71606;SDS011;60641;53.556;9.914;2023-02-26T03:15:12;4.60;;;0.90;;
71606;SDS011;60641;53.556;9.914;2023-02-26T03:20:42;3.30;;;0.60;;
71606;SDS011;60641;53.556;9.914;2023-02-26T03:23:24;3.30;;;0.80;;
71606;SDS011;60641;53.556;9.914;2023-02-26T03:26:41;5.20;;;0.80;;
71606;SDS011;60641;53.556;9.914;2023-02-26T03:28:51;6.00;;;1.30;;
71606;SDS011;60641;53.556;9.914;2023-02-26T03:31:35;5.00;;;0.80;;
71606;SDS011;60641;53.556;9.914;2023-02-26T03:34:07;4.90;;;0.70;;
71606;SDS011;60641;53.556;9.914;2023-02-26T03:36:47;2.30;;;0.40;;
71606;SDS011;60641;53.556;9.914;2023-02-26T03:42:20;2.80;;;0.50;;
71606;SDS011;60641;53.556;9.914;2023-02-26T03:45:00;4.90;;;0.80;;
71606;SDS011;60641;53.556;9.914;2023-02-26T03:47:30;6.70;;;0.90;;
71606;SDS011;60641;53.556;9.914;2023-02-26T03:50:00;2.30;;;0.50;;
71606;SDS011;60641;53.556;9.914;2023-02-26T03:52:30;4.20;;;0.60;;
71606;SDS011;60641;53.556;9.914;2023-02-26T03:55:04;5.10;;;0.70;;
71606;SDS011;60641;53.556;9.914;2023-02-26T03:57:33;4.40;;;0.90;;
71606;SDS011;60641;53.556;9.914;2023-02-26T04:00:00;2.60;;;0.50;;
71606;SDS011;60641;53.556;9.914;2023-02-26T04:02:29;3.50;;;0.40;;
71606;SDS011;60641;53.556;9.914;2023-02-26T04:05:10;5.20;;;0.70;;
71606;SDS011;60641;53.556;9.914;2023-02-26T04:07:40;3.70;;;0.50;;
71606;SDS011;60641;53.556;9.914;2023-02-26T04:10:08;4.40;;;0.60;;
71606;SDS011;60641;53.556;9.914;2023-02-26T04:12:35;3.90;;;0.70;;
71606;SDS011;60641;53.556;9.914;2023-02-26T04:15:01;3.90;;;0.60;;
71606;SDS011;60641;53.556;9.914;2023-02-26T04:17:30;4.60;;;0.50;;
71606;SDS011;60641;53.556;9.914;2023-02-26T04:19:56;5.00;;;0.70;;
71606;SDS011;60641;53.556;9.914;2023-02-26T04:22:23;5.20;;;0.70;;
71606;SDS011;60641;53.556;9.914;2023-02-26T04:24:49;3.10;;;0.50;;
71606;SDS011;60641;53.556;9.914;2023-02-26T04:27:16;6.80;;;0.60;;
71606;SDS011;60641;53.556;9.914;2023-02-26T04:29:42;3.70;;;0.60;;
71606;SDS011;60641;53.556;9.914;2023-02-26T04:32:08;3.90;;;0.60;;
71606;SDS011;60641;53.556;9.914;2023-02-26T04:34:35;3.80;;;0.40;;
71606;SDS011;60641;53.556;9.914;2023-02-26T04:37:01;4.40;;;0.60;;
71606;SDS011;60641;53.556;9.914;2023-02-26T04:39:28;5.20;;;0.60;;
71606;SDS011;60641;53.556;9.914;2023-02-26T04:41:54;6.90;;;0.80;;
71606;SDS011;60641;53.556;9.914;2023-02-26T04:44:21;4.50;;;0.80;;
71606;SDS011;60641;53.556;9.914;2023-02-26T04:46:47;6.60;;;0.70;;
71606;SDS011;60641;53.556;9.914;2023-02-26T04:49:13;4.50;;;0.50;;
71606;SDS011;60641;53.556;9.914;2023-02-26T04:51:40;4.00;;;0.60;;
71606;SDS011;60641;53.556;9.914;2023-02-26T04:54:06;7.40;;;0.80;;
71606;SDS011;60641;53.556;9.914;2023-02-26T04:56:33;3.20;;;0.50;;
71606;SDS011;60641;53.556;9.914;2023-02-26T04:59:00;4.60;;;0.60;;
71606;SDS011;60641;53.556;9.914;2023-02-26T05:01:26;4.90;;;0.80;;
71606;SDS011;60641;53.556;9.914;2023-02-26T05:03:53;4.00;;;1.10;;
71606;SDS011;60641;53.556;9.914;2023-02-26T05:06:19;5.10;;;0.90;;
71606;SDS011;60641;53.556;9.914;2023-02-26T05:08:46;5.70;;;0.50;;
71606;SDS011;60641;53.556;9.914;2023-02-26T05:11:12;3.50;;;0.50;;
71606;SDS011;60641;53.556;9.914;2023-02-26T05:13:39;4.20;;;0.60;;
71606;SDS011;60641;53.556;9.914;2023-02-26T05:16:05;2.60;;;0.50;;
71606;SDS011;60641;53.556;9.914;2023-02-26T05:18:33;6.60;;;0.90;;
71606;SDS011;60641;53.556;9.914;2023-02-26T05:20:59;5.00;;;0.60;;
71606;SDS011;60641;53.556;9.914;2023-02-26T05:23:26;4.40;;;0.60;;
71606;SDS011;60641;53.556;9.914;2023-02-26T05:25:55;1.90;;;0.40;;
71606;SDS011;60641;53.556;9.914;2023-02-26T05:28:26;2.80;;;0.40;;
71606;SDS011;60641;53.556;9.914;2023-02-26T05:30:52;4.80;;;0.50;;
71606;SDS011;60641;53.556;9.914;2023-02-26T05:33:22;5.90;;;0.70;;
71606;SDS011;60641;53.556;9.914;2023-02-26T05:35:49;4.90;;;0.50;;
71606;SDS011;60641;53.556;9.914;2023-02-26T05:38:15;2.50;;;0.50;;
71606;SDS011;60641;53.556;9.914;2023-02-26T05:40:42;2.80;;;0.60;;
71606;SDS011;60641;53.556;9.914;2023-02-26T05:43:08;4.80;;;0.70;;
71606;SDS011;60641;53.556;9.914;2023-02-26T05:45:35;3.40;;;0.40;;
71606;SDS011;60641;53.556;9.914;2023-02-26T05:48:02;3.30;;;0.50;;
71606;SDS011;60641;53.556;9.914;2023-02-26T05:50:28;4.80;;;0.50;;
71606;SDS011;60641;53.556;9.914;2023-02-26T05:52:55;3.10;;;0.40;;
71606;SDS011;60641;53.556;9.914;2023-02-26T05:55:22;4.30;;;0.50;;
71606;SDS011;60641;53.556;9.914;2023-02-26T05:57:48;3.90;;;0.50;;
71606;SDS011;60641;53.556;9.914;2023-02-26T06:00:15;3.40;;;0.50;;
71606;SDS011;60641;53.556;9.914;2023-02-26T06:02:42;2.30;;;0.30;;
71606;SDS011;60641;53.556;9.914;2023-02-26T06:05:08;4.00;;;0.60;;
71606;SDS011;60641;53.556;9.914;2023-02-26T06:07:35;4.70;;;0.60;;
71606;SDS011;60641;53.556;9.914;2023-02-26T06:10:01;4.70;;;0.50;;
71606;SDS011;60641;53.556;9.914;2023-02-26T06:12:27;5.20;;;0.60;;
71606;SDS011;60641;53.556;9.914;2023-02-26T06:14:54;4.90;;;0.60;;
71606;SDS011;60641;53.556;9.914;2023-02-26T06:17:20;4.10;;;0.50;;
71606;SDS011;60641;53.556;9.914;2023-02-26T06:19:47;2.20;;;0.50;;
71606;SDS011;60641;53.556;9.914;2023-02-26T06:22:13;4.30;;;0.40;;
71606;SDS011;60641;53.556;9.914;2023-02-26T06:24:40;4.10;;;0.70;;
71606;SDS011;60641;53.556;9.914;2023-02-26T06:27:06;3.60;;;0.60;;
71606;SDS011;60641;53.556;9.914;2023-02-26T06:29:36;6.00;;;0.70;;
71606;SDS011;60641;53.556;9.914;2023-02-26T06:32:03;5.10;;;1.10;;
71606;SDS011;60641;53.556;9.914;2023-02-26T06:34:30;5.30;;;0.80;;
71606;SDS011;60641;53.556;9.914;2023-02-26T06:36:57;6.10;;;0.60;;
71606;SDS011;60641;53.556;9.914;2023-02-26T06:39:23;5.00;;;0.70;;
71606;SDS011;60641;53.556;9.914;2023-02-26T06:41:50;4.50;;;0.70;;
71606;SDS011;60641;53.556;9.914;2023-02-26T06:44:16;17.60;;;1.00;;
71606;SDS011;60641;53.556;9.914;2023-02-26T06:46:43;5.00;;;1.00;;
71606;SDS011;60641;53.556;9.914;2023-02-26T06:49:09;6.00;;;0.70;;
71606;SDS011;60641;53.556;9.914;2023-02-26T06:51:36;3.00;;;0.60;;
71606;SDS011;60641;53.556;9.914;2023-02-26T06:54:02;4.60;;;0.80;;
71606;SDS011;60641;53.556;9.914;2023-02-26T06:56:29;4.20;;;0.80;;
71606;SDS011;60641;53.556;9.914;2023-02-26T06:58:55;5.70;;;0.70;;
71606;SDS011;60641;53.556;9.914;2023-02-26T07:01:22;7.50;;;1.00;;
71606;SDS011;60641;53.556;9.914;2023-02-26T07:03:49;7.20;;;0.90;;
71606;SDS011;60641;53.556;9.914;2023-02-26T07:06:16;3.10;;;0.60;;
71606;SDS011;60641;53.556;9.914;2023-02-26T07:08:42;4.30;;;0.60;;
71606;SDS011;60641;53.556;9.914;2023-02-26T07:11:09;4.60;;;0.90;;
71606;SDS011;60641;53.556;9.914;2023-02-26T07:13:36;8.50;;;1.20;;
71606;SDS011;60641;53.556;9.914;2023-02-26T07:16:03;5.00;;;0.80;;
71606;SDS011;60641;53.556;9.914;2023-02-26T07:18:32;4.60;;;0.70;;
71606;SDS011;60641;53.556;9.914;2023-02-26T07:21:00;7.10;;;1.50;;
71606;SDS011;60641;53.556;9.914;2023-02-26T07:23:26;8.20;;;1.70;;
71606;SDS011;60641;53.556;9.914;2023-02-26T07:25:53;6.60;;;1.00;;
71606;SDS011;60641;53.556;9.914;2023-02-26T07:28:20;6.10;;;0.90;;
71606;SDS011;60641;53.556;9.914;2023-02-26T07:30:47;6.90;;;0.80;;
71606;SDS011;60641;53.556;9.914;2023-02-26T07:33:13;6.80;;;0.90;;
71606;SDS011;60641;53.556;9.914;2023-02-26T07:35:40;5.00;;;0.80;;
71606;SDS011;60641;53.556;9.914;2023-02-26T07:38:06;5.80;;;0.90;;
71606;SDS011;60641;53.556;9.914;2023-02-26T07:40:33;3.90;;;0.80;;
71606;SDS011;60641;53.556;9.914;2023-02-26T07:42:59;5.20;;;1.00;;
71606;SDS011;60641;53.556;9.914;2023-02-26T07:45:25;4.50;;;0.90;;
71606;SDS011;60641;53.556;9.914;2023-02-26T07:47:53;5.00;;;0.90;;
71606;SDS011;60641;53.556;9.914;2023-02-26T07:50:19;6.60;;;1.10;;
71606;SDS011;60641;53.556;9.914;2023-02-26T07:52:46;7.70;;;1.40;;
71606;SDS011;60641;53.556;9.914;2023-02-26T07:55:13;5.90;;;1.30;;
71606;SDS011;60641;53.556;9.914;2023-02-26T07:57:39;5.90;;;1.00;;
71606;SDS011;60641;53.556;9.914;2023-02-26T08:00:05;7.40;;;1.00;;
71606;SDS011;60641;53.556;9.914;2023-02-26T08:02:32;5.80;;;1.10;;
71606;SDS011;60641;53.556;9.914;2023-02-26T08:04:59;4.00;;;0.70;;
71606;SDS011;60641;53.556;9.914;2023-02-26T08:07:25;5.30;;;0.80;;
71606;SDS011;60641;53.556;9.914;2023-02-26T08:09:52;5.70;;;1.00;;
71606;SDS011;60641;53.556;9.914;2023-02-26T08:12:18;7.50;;;1.00;;
71606;SDS011;60641;53.556;9.914;2023-02-26T08:14:45;6.90;;;0.70;;
71606;SDS011;60641;53.556;9.914;2023-02-26T08:17:13;5.00;;;0.90;;
71606;SDS011;60641;53.556;9.914;2023-02-26T08:19:39;6.10;;;0.90;;
71606;SDS011;60641;53.556;9.914;2023-02-26T08:22:06;7.40;;;1.10;;
71606;SDS011;60641;53.556;9.914;2023-02-26T08:24:32;6.70;;;1.00;;
71606;SDS011;60641;53.556;9.914;2023-02-26T08:26:59;6.10;;;1.00;;
71606;SDS011;60641;53.556;9.914;2023-02-26T08:29:25;3.60;;;0.70;;
71606;SDS011;60641;53.556;9.914;2023-02-26T08:31:52;5.30;;;1.10;;
71606;SDS011;60641;53.556;9.914;2023-02-26T08:34:18;5.70;;;0.90;;
71606;SDS011;60641;53.556;9.914;2023-02-26T08:36:45;4.60;;;0.90;;
71606;SDS011;60641;53.556;9.914;2023-02-26T08:39:11;3.90;;;0.80;;
71606;SDS011;60641;53.556;9.914;2023-02-26T08:41:38;5.50;;;0.90;;
71606;SDS011;60641;53.556;9.914;2023-02-26T08:44:04;4.40;;;1.00;;
71606;SDS011;60641;53.556;9.914;2023-02-26T08:46:31;7.60;;;1.00;;
71606;SDS011;60641;53.556;9.914;2023-02-26T08:48:57;6.20;;;0.90;;
71606;SDS011;60641;53.556;9.914;2023-02-26T08:51:23;6.10;;;1.00;;
71606;SDS011;60641;53.556;9.914;2023-02-26T08:53:50;4.60;;;0.90;;
71606;SDS011;60641;53.556;9.914;2023-02-26T08:56:17;4.40;;;0.80;;
71606;SDS011;60641;53.556;9.914;2023-02-26T08:58:43;5.80;;;1.20;;
71606;SDS011;60641;53.556;9.914;2023-02-26T09:01:10;6.00;;;0.80;;
71606;SDS011;60641;53.556;9.914;2023-02-26T09:03:36;5.50;;;1.10;;
71606;SDS011;60641;53.556;9.914;2023-02-26T09:06:03;3.20;;;0.70;;
71606;SDS011;60641;53.556;9.914;2023-02-26T09:08:30;4.50;;;0.70;;
71606;SDS011;60641;53.556;9.914;2023-02-26T09:11:01;5.20;;;0.70;;
71606;SDS011;60641;53.556;9.914;2023-02-26T09:13:28;4.70;;;0.90;;
71606;SDS011;60641;53.556;9.914;2023-02-26T09:15:55;4.00;;;0.70;;
71606;SDS011;60641;53.556;9.914;2023-02-26T09:18:22;3.90;;;0.80;;
71606;SDS011;60641;53.556;9.914;2023-02-26T09:20:49;6.70;;;0.70;;
71606;SDS011;60641;53.556;9.914;2023-02-26T09:23:15;4.90;;;0.60;;
71606;SDS011;60641;53.556;9.914;2023-02-26T09:25:42;6.30;;;0.80;;
71606;SDS011;60641;53.556;9.914;2023-02-26T09:28:08;5.00;;;0.70;;
71606;SDS011;60641;53.556;9.914;2023-02-26T09:30:35;4.90;;;0.90;;
71606;SDS011;60641;53.556;9.914;2023-02-26T09:33:01;4.60;;;0.60;;
71606;SDS011;60641;53.556;9.914;2023-02-26T09:35:28;4.60;;;0.50;;
71606;SDS011;60641;53.556;9.914;2023-02-26T09:37:54;4.40;;;0.70;;
71606;SDS011;60641;53.556;9.914;2023-02-26T09:40:43;3.00;;;0.60;;
71606;SDS011;60641;53.556;9.914;2023-02-26T09:52:12;1.70;;;0.40;;
71606;SDS011;60641;53.556;9.914;2023-02-26T09:54:55;4.00;;;0.80;;
71606;SDS011;60641;53.556;9.914;2023-02-26T09:57:26;5.80;;;0.80;;
71606;SDS011;60641;53.556;9.914;2023-02-26T09:59:54;4.80;;;0.70;;
71606;SDS011;60641;53.556;9.914;2023-02-26T10:02:23;3.90;;;0.70;;
71606;SDS011;60641;53.556;9.914;2023-02-26T10:07:37;3.90;;;0.60;;
71606;SDS011;60641;53.556;9.914;2023-02-26T10:10:18;3.50;;;0.80;;
71606;SDS011;60641;53.556;9.914;2023-02-26T10:12:50;3.70;;;0.60;;
71606;SDS011;60641;53.556;9.914;2023-02-26T10:15:19;4.50;;;0.80;;
71606;SDS011;60641;53.556;9.914;2023-02-26T10:20:30;4.30;;;0.70;;
71606;SDS011;60641;53.556;9.914;2023-02-26T10:26:04;4.40;;;0.70;;
71606;SDS011;60641;53.556;9.914;2023-02-26T10:42:53;3.40;;;0.50;;
71606;SDS011;60641;53.556;9.914;2023-02-26T10:45:40;2.80;;;0.50;;
71606;SDS011;60641;53.556;9.914;2023-02-26T10:50:56;3.90;;;0.80;;
71606;SDS011;60641;53.556;9.914;2023-02-26T10:53:25;5.10;;;0.70;;
71606;SDS011;60641;53.556;9.914;2023-02-26T10:55:56;5.90;;;1.10;;
71606;SDS011;60641;53.556;9.914;2023-02-26T10:58:28;3.60;;;0.80;;
71606;SDS011;60641;53.556;9.914;2023-02-26T11:00:55;5.80;;;1.00;;
71606;SDS011;60641;53.556;9.914;2023-02-26T11:03:29;7.00;;;1.30;;
71606;SDS011;60641;53.556;9.914;2023-02-26T11:06:03;4.40;;;0.70;;
71606;SDS011;60641;53.556;9.914;2023-02-26T11:08:31;2.90;;;0.60;;
71606;SDS011;60641;53.556;9.914;2023-02-26T11:11:00;4.20;;;0.50;;
71606;SDS011;60641;53.556;9.914;2023-02-26T11:13:29;4.90;;;1.30;;
71606;SDS011;60641;53.556;9.914;2023-02-26T11:15:57;5.50;;;0.90;;
71606;SDS011;60641;53.556;9.914;2023-02-26T11:18:28;3.60;;;0.70;;
71606;SDS011;60641;53.556;9.914;2023-02-26T11:20:58;4.60;;;0.60;;
71606;SDS011;60641;53.556;9.914;2023-02-26T11:23:27;4.20;;;0.80;;
71606;SDS011;60641;53.556;9.914;2023-02-26T11:25:57;4.60;;;1.00;;
71606;SDS011;60641;53.556;9.914;2023-02-26T11:28:35;2.20;;;0.40;;
71606;SDS011;60641;53.556;9.914;2023-02-26T11:31:05;3.70;;;0.70;;
71606;SDS011;60641;53.556;9.914;2023-02-26T11:33:37;4.20;;;0.80;;
71606;SDS011;60641;53.556;9.914;2023-02-26T11:36:09;2.50;;;0.50;;
71606;SDS011;60641;53.556;9.914;2023-02-26T11:38:38;5.50;;;0.70;;
71606;SDS011;60641;53.556;9.914;2023-02-26T11:41:05;4.30;;;0.70;;
71606;SDS011;60641;53.556;9.914;2023-02-26T11:43:35;3.10;;;0.60;;
71606;SDS011;60641;53.556;9.914;2023-02-26T11:46:06;5.60;;;0.90;;
71606;SDS011;60641;53.556;9.914;2023-02-26T11:48:40;4.70;;;0.70;;
71606;SDS011;60641;53.556;9.914;2023-02-26T11:51:18;3.80;;;0.70;;
71606;SDS011;60641;53.556;9.914;2023-02-26T11:53:52;5.30;;;0.80;;
71606;SDS011;60641;53.556;9.914;2023-02-26T11:56:24;5.10;;;0.90;;
71606;SDS011;60641;53.556;9.914;2023-02-26T11:59:06;5.10;;;0.80;;
71606;SDS011;60641;53.556;9.914;2023-02-26T12:01:38;5.80;;;1.10;;
71606;SDS011;60641;53.556;9.914;2023-02-26T12:04:08;3.70;;;0.80;;
71606;SDS011;60641;53.556;9.914;2023-02-26T12:06:37;3.90;;;0.70;;
71606;SDS011;60641;53.556;9.914;2023-02-26T12:09:10;4.30;;;0.80;;
71606;SDS011;60641;53.556;9.914;2023-02-26T12:37:00;4.30;;;0.80;;
71606;SDS011;60641;53.556;9.914;2023-02-26T12:39:48;4.20;;;0.80;;
71606;SDS011;60641;53.556;9.914;2023-02-26T12:45:41;3.60;;;0.70;;
71606;SDS011;60641;53.556;9.914;2023-02-26T13:08:05;3.50;;;0.80;;
71606;SDS011;60641;53.556;9.914;2023-02-26T13:16:07;6.20;;;1.10;;
71606;SDS011;60641;53.556;9.914;2023-02-26T13:19:01;3.50;;;0.80;;
71606;SDS011;60641;53.556;9.914;2023-02-26T13:21:38;6.70;;;0.90;;
71606;SDS011;60641;53.556;9.914;2023-02-26T13:27:01;4.90;;;0.70;;
71606;SDS011;60641;53.556;9.914;2023-02-26T13:29:31;4.30;;;0.60;;
71606;SDS011;60641;53.556;9.914;2023-02-26T13:32:04;3.00;;;0.60;;
71606;SDS011;60641;53.556;9.914;2023-02-26T13:37:16;3.80;;;0.60;;
71606;SDS011;60641;53.556;9.914;2023-02-26T13:45:50;4.10;;;0.70;;
71606;SDS011;60641;53.556;9.914;2023-02-26T13:58:53;3.60;;;0.70;;
71606;SDS011;60641;53.556;9.914;2023-02-26T14:01:34;3.10;;;0.50;;
71606;SDS011;60641;53.556;9.914;2023-02-26T14:09:56;5.30;;;0.80;;
71606;SDS011;60641;53.556;9.914;2023-02-26T14:17:40;3.60;;;0.70;;
71606;SDS011;60641;53.556;9.914;2023-02-26T14:20:26;5.90;;;0.90;;
71606;SDS011;60641;53.556;9.914;2023-02-26T14:25:39;3.10;;;0.70;;
71606;SDS011;60641;53.556;9.914;2023-02-26T14:28:29;6.40;;;1.00;;
71606;SDS011;60641;53.556;9.914;2023-02-26T14:31:16;6.20;;;0.80;;
71606;SDS011;60641;53.556;9.914;2023-02-26T14:34:07;4.70;;;0.70;;
71606;SDS011;60641;53.556;9.914;2023-02-26T14:36:45;4.10;;;0.60;;
71606;SDS011;60641;53.556;9.914;2023-02-26T14:39:24;3.90;;;0.70;;
71606;SDS011;60641;53.556;9.914;2023-02-26T14:42:03;2.30;;;0.50;;
71606;SDS011;60641;53.556;9.914;2023-02-26T14:44:44;6.20;;;0.90;;
71606;SDS011;60641;53.556;9.914;2023-02-26T14:47:13;4.40;;;0.70;;
71606;SDS011;60641;53.556;9.914;2023-02-26T14:49:43;4.30;;;0.70;;
71606;SDS011;60641;53.556;9.914;2023-02-26T14:58:00;7.80;;;1.00;;
71606;SDS011;60641;53.556;9.914;2023-02-26T15:00:47;4.20;;;0.80;;
71606;SDS011;60641;53.556;9.914;2023-02-26T15:24:28;4.30;;;0.60;;
71606;SDS011;60641;53.556;9.914;2023-02-26T15:26:59;3.90;;;0.70;;
71606;SDS011;60641;53.556;9.914;2023-02-26T15:29:28;4.50;;;0.60;;
71606;SDS011;60641;53.556;9.914;2023-02-26T15:31:58;5.80;;;0.70;;
71606;SDS011;60641;53.556;9.914;2023-02-26T15:34:28;3.20;;;0.50;;
71606;SDS011;60641;53.556;9.914;2023-02-26T15:36:56;3.50;;;0.50;;
71606;SDS011;60641;53.556;9.914;2023-02-26T15:39:26;5.80;;;0.60;;
71606;SDS011;60641;53.556;9.914;2023-02-26T15:41:53;2.60;;;0.60;;
71606;SDS011;60641;53.556;9.914;2023-02-26T15:44:24;3.90;;;0.50;;
71606;SDS011;60641;53.556;9.914;2023-02-26T15:46:54;5.20;;;1.00;;
71606;SDS011;60641;53.556;9.914;2023-02-26T15:49:25;6.30;;;1.50;;
71606;SDS011;60641;53.556;9.914;2023-02-26T15:51:55;5.00;;;1.10;;
71606;SDS011;60641;53.556;9.914;2023-02-26T15:54:24;5.20;;;0.90;;
71606;SDS011;60641;53.556;9.914;2023-02-26T15:56:55;7.10;;;1.10;;
71606;SDS011;60641;53.556;9.914;2023-02-26T15:59:25;6.90;;;1.40;;
71606;SDS011;60641;53.556;9.914;2023-02-26T16:01:53;7.80;;;1.30;;
71606;SDS011;60641;53.556;9.914;2023-02-26T16:04:21;6.70;;;1.00;;
71606;SDS011;60641;53.556;9.914;2023-02-26T16:06:55;3.40;;;0.60;;
71606;SDS011;60641;53.556;9.914;2023-02-26T16:09:56;5.20;;;1.10;;
71606;SDS011;60641;53.556;9.914;2023-02-26T16:14:58;4.20;;;0.70;;
71606;SDS011;60641;53.556;9.914;2023-02-26T16:17:31;6.10;;;1.00;;
71606;SDS011;60641;53.556;9.914;2023-02-26T16:20:01;4.70;;;1.20;;
71606;SDS011;60641;53.556;9.914;2023-02-26T16:22:31;8.80;;;0.80;;
71606;SDS011;60641;53.556;9.914;2023-02-26T16:25:04;8.00;;;0.90;;
71606;SDS011;60641;53.556;9.914;2023-02-26T16:27:32;3.00;;;0.60;;
71606;SDS011;60641;53.556;9.914;2023-02-26T16:30:00;5.60;;;0.60;;
71606;SDS011;60641;53.556;9.914;2023-02-26T16:32:28;6.00;;;0.70;;
71606;SDS011;60641;53.556;9.914;2023-02-26T16:34:59;4.20;;;0.80;;
71606;SDS011;60641;53.556;9.914;2023-02-26T16:47:51;8.90;;;2.00;;
71606;SDS011;60641;53.556;9.914;2023-02-26T16:50:22;6.40;;;1.10;;
71606;SDS011;60641;53.556;9.914;2023-02-26T16:52:54;4.60;;;0.90;;
71606;SDS011;60641;53.556;9.914;2023-02-26T16:55:25;3.10;;;0.60;;
71606;SDS011;60641;53.556;9.914;2023-02-26T16:57:53;4.90;;;0.80;;
71606;SDS011;60641;53.556;9.914;2023-02-26T17:00:23;13.80;;;4.90;;
71606;SDS011;60641;53.556;9.914;2023-02-26T17:03:13;9.90;;;2.60;;
71606;SDS011;60641;53.556;9.914;2023-02-26T17:06:01;10.10;;;1.80;;
71606;SDS011;60641;53.556;9.914;2023-02-26T17:08:33;8.00;;;1.50;;
71606;SDS011;60641;53.556;9.914;2023-02-26T17:11:02;8.90;;;2.70;;
71606;SDS011;60641;53.556;9.914;2023-02-26T17:13:32;6.30;;;0.80;;
71606;SDS011;60641;53.556;9.914;2023-02-26T17:16:00;4.90;;;0.90;;
71606;SDS011;60641;53.556;9.914;2023-02-26T17:18:28;5.80;;;0.90;;
71606;SDS011;60641;53.556;9.914;2023-02-26T17:20:56;6.80;;;0.80;;
71606;SDS011;60641;53.556;9.914;2023-02-26T17:23:25;5.50;;;1.50;;
71606;SDS011;60641;53.556;9.914;2023-02-26T17:25:54;6.80;;;2.10;;
71606;SDS011;60641;53.556;9.914;2023-02-26T17:28:22;6.60;;;1.20;;
71606;SDS011;60641;53.556;9.914;2023-02-26T17:30:50;5.60;;;1.00;;
71606;SDS011;60641;53.556;9.914;2023-02-26T17:33:18;7.70;;;1.10;;
71606;SDS011;60641;53.556;9.914;2023-02-26T17:35:44;4.70;;;1.10;;
71606;SDS011;60641;53.556;9.914;2023-02-26T17:38:12;6.90;;;2.00;;
71606;SDS011;60641;53.556;9.914;2023-02-26T17:40:39;8.40;;;2.40;;
71606;SDS011;60641;53.556;9.914;2023-02-26T17:43:07;7.90;;;1.90;;
71606;SDS011;60641;53.556;9.914;2023-02-26T17:45:35;6.30;;;1.40;;
71606;SDS011;60641;53.556;9.914;2023-02-26T17:48:04;6.40;;;1.70;;
71606;SDS011;60641;53.556;9.914;2023-02-26T17:50:37;8.10;;;2.20;;
71606;SDS011;60641;53.556;9.914;2023-02-26T17:53:05;7.50;;;1.70;;
71606;SDS011;60641;53.556;9.914;2023-02-26T17:55:32;6.60;;;1.40;;
71606;SDS011;60641;53.556;9.914;2023-02-26T17:58:00;4.90;;;1.10;;
71606;SDS011;60641;53.556;9.914;2023-02-26T18:00:27;7.00;;;1.20;;
71606;SDS011;60641;53.556;9.914;2023-02-26T18:02:53;5.40;;;1.10;;
71606;SDS011;60641;53.556;9.914;2023-02-26T18:05:20;8.50;;;1.30;;
71606;SDS011;60641;53.556;9.914;2023-02-26T18:07:47;7.00;;;2.10;;
71606;SDS011;60641;53.556;9.914;2023-02-26T18:10:18;7.50;;;2.00;;
71606;SDS011;60641;53.556;9.914;2023-02-26T18:12:47;6.20;;;1.40;;
71606;SDS011;60641;53.556;9.914;2023-02-26T18:15:14;7.20;;;1.70;;
71606;SDS011;60641;53.556;9.914;2023-02-26T18:17:41;6.90;;;1.50;;
71606;SDS011;60641;53.556;9.914;2023-02-26T18:20:14;7.50;;;1.80;;
71606;SDS011;60641;53.556;9.914;2023-02-26T18:22:43;12.20;;;3.00;;
71606;SDS011;60641;53.556;9.914;2023-02-26T18:25:12;8.20;;;2.20;;
71606;SDS011;60641;53.556;9.914;2023-02-26T18:27:39;7.50;;;1.90;;
71606;SDS011;60641;53.556;9.914;2023-02-26T18:30:12;7.30;;;1.80;;
71606;SDS011;60641;53.556;9.914;2023-02-26T18:32:46;9.80;;;1.80;;
71606;SDS011;60641;53.556;9.914;2023-02-26T18:35:12;9.30;;;1.70;;
71606;SDS011;60641;53.556;9.914;2023-02-26T18:37:39;6.50;;;1.60;;